METAR Data
IDs: Format: Raw Decoded Include TAF

Data at: 1819 UTC 21 Sep 2018

KDTO 211816Z 16015KT 10SM SCT024 BKN044 OVC075 29/23 A2993 RMK AO2 T02890228
KDTO 211807Z 17016G21KT 10SM FEW022 BKN026 BKN075 30/23 A2993 RMK AO2 T03000233
KDTO 211753Z 16013KT 10SM SCT023 BKN060 BKN080 29/23 A2994 RMK AO2 SLP130 60000 T02890233 10289 20244 55007
KDTO 211741Z 17014KT 10SM BKN024 BKN043 OVC080 28/23 A2995 RMK AO2 T02830233
KDTO 211714Z 16009KT 10SM SCT020 BKN044 BKN055 28/23 A2995 RMK AO2 T02830233
KDTO 211702Z 17013KT 10SM BKN020 BKN070 28/23 A2996 RMK AO2 T02780233
KDTO 211653Z 17011KT 10SM SCT019 BKN065 27/23 A2996 RMK AO2 RAE20 SLP137 P0000 T02720233
KDTO 211553Z 16010KT 10SM -RA SCT017 BKN075 OVC100 26/24 A2996 RMK AO2 RAB24 SLP138 P0000 T02610239
KDTO 211453Z 18010KT 10SM BKN017 OVC025 27/23 A2996 RMK AO2 SLP136 T02670228 51009
KDTO 211444Z 17010KT 10SM BKN019 OVC095 27/23 A2996 RMK AO2 T02670228
KDTO 211424Z 17011KT 10SM SCT018 OVC100 27/23 A2995 RMK AO2 T02670228
KDTO 211353Z 17009KT 10SM OVC020 25/23 A2995 RMK AO2 SLP134 T02500228
KDTO 211338Z 16008KT 10SM BKN020 BKN055 BKN090 25/23 A2995 RMK AO2 T02500228
KDTO 211253Z 16006KT 10SM FEW055 SCT080 OVC095 24/22 A2994 RMK AO2 SLP130 T02440222
KDTO 211216Z 16008KT 10SM FEW020 BKN080 BKN090 24/22 A2993 RMK AO2 T02440222
KDTO 211153Z 17007KT 10SM BKN017 BKN023 BKN049 24/22 A2993 RMK AO2 SLP127 60000 T02440222 10250 20239 53001
KDTO 211053Z 18008KT 10SM BKN017 OVC023 24/22 A2993 RMK AO2 SLP126 T02440222
KDTO 210953Z AUTO 15005KT 10SM OVC016 24/22 A2993 RMK AO2 SLP124 T02440217
KDTO 210853Z AUTO 16006KT 10SM BKN018 OVC080 24/21 A2993 RMK AO2 RAE0756 SLP125 P0000 60000 T02390211 56002
KDTO 210801Z AUTO 16006KT 10SM BKN022 OVC049 24/21 A2993 RMK AO2 RAE0756 P0000 T02390206
KDTO 210753Z AUTO 15006KT 10SM -RA SCT022 OVC050 24/21 A2993 RMK AO2 RAB47 SLP126 P0000 T02390206
KDTO 210653Z AUTO 17007KT 10SM FEW028 OVC050 24/20 A2993 RMK AO2 SLP125 T02390200
KDTO 210553Z AUTO 18007KT 10SM SCT065 24/20 A2993 RMK AO2 SLP127 60000 T02390200 10256 20233 403220222 58002
KDTO 210453Z AUTO 19005KT 10SM BKN120 24/21 A2995 RMK AO2 SLP131 T02390206
KDTO 210353Z AUTO 18007KT 10SM OVC110 24/21 A2995 RMK AO2 SLP132 T02440206
KDTO 210253Z 14007KT 10SM FEW100 24/20 A2994 RMK AO2 RAB19E34 SLP130 P0000 60000 T02440200 51017
KDTO 210153Z 15008KT 10SM CLR 25/19 A2993 RMK AO2 SLP126 T02500194
KDTO 210053Z 16011KT 10SM CLR 25/21 A2991 RMK AO2 LTG DSNT NE-SE RAE10 SLP118 P0000 T02500206
KDTO 202353Z 21010KT 10SM -RA FEW075 SCT110 24/21 A2989 RMK AO2 PK WND 21031/2321 WSHFT 2306 LTG DSNT SE AND S RAB52 SLP113 P0000 60000 T02440206 10322 20244 53004
KDTO 202344Z 22011KT 10SM FEW044 SCT075 SCT120 24/20 A2989 RMK AO2 PK WND 21031/2321 WSHFT 2306 LTG DSNT SE AND S T02440200
KDTO 202329Z 22017G31KT 10SM VCTS SCT043 SCT060 SCT075 26/19 A2989 RMK AO2 PK WND 21031/2321 WSHFT 2306 LTG DSNT NW T02610194
KDTO 202320Z 22020G26KT 10SM SCT043 28/20 A2990 RMK AO2 PK WND 22026/2319 WSHFT 2306 LTG DSNT S-NW T02780200
KDTO 202307Z 15011KT 10SM VCTS CLR 29/19 A2988 RMK AO2 LTG DSNT S-NW T02940194
KDTO 202253Z 16011KT 10SM CLR 29/20 A2987 RMK AO2 LTG DSNT S-W SLP106 T02940200
KDTO 202153Z 15017KT 10SM FEW045 32/21 A2987 RMK AO2 LTG DSNT W SLP104 T03170206
KDTO 202053Z 15009KT 10SM CLR 30/22 A2988 RMK AO2 SLP108 T03000217 58023
KDTO 201953Z 15010KT 10SM FEW039 31/22 A2990 RMK AO2 SLP115 T03110222
KDTO 201853Z 18012KT 10SM SCT045 BKN050 32/22 A2993 RMK AO2 SLP124 T03170217
KDTO 201753Z 19010KT 10SM CLR 31/21 A2995 RMK AO2 SLP131 T03110211 10311 20222 58007
KDTO 201653Z 19009KT 10SM CLR 30/21 A2997 RMK AO2 SLP141 T03000211
KDTO 201553Z 19006KT 10SM CLR 29/22 A2997 RMK AO2 SLP141 T02940222
KDTO 201453Z 15007KT 10SM CLR 27/22 A2997 RMK AO2 SLP139 T02670222 53016
KDTO 201353Z 17006KT 10SM CLR 26/22 A2995 RMK AO2 SLP132 T02560217
KDTO 201253Z 14005KT 10SM CLR 23/21 A2993 RMK AO2 SLP127 T02330211
KDTO 201153Z 17004KT 10SM CLR 23/21 A2992 RMK AO2 SLP123 T02280206 10261 20222 52004
KDTO 201053Z 16004KT 10SM CLR 23/21 A2992 RMK AO2 SLP121 T02280206
KDTO 200953Z AUTO 15006KT 10SM CLR 23/21 A2992 RMK AO2 SLP120 T02330206
KDTO 200853Z AUTO 14005KT 10SM CLR 24/21 A2991 RMK AO2 SLP118 T02440206 56008
KDTO 200753Z AUTO 20004KT 10SM CLR 24/21 A2991 RMK AO2 SLP119 T02390206
KDTO 200653Z AUTO 18005KT 10SM CLR 24/21 A2992 RMK AO2 SLP122 T02440206